sensor_id;sensor_type;location;lat;lon;timestamp;pressure;altitude;pressure_sealevel;temperature;humidity
76434;BME280;65265;53.200;6.080;2023-04-29T00:03:30;101429.38;;;8.69;100.00
76434;BME280;65265;53.200;6.080;2023-04-29T00:08:23;101421.41;;;8.63;100.00
76434;BME280;65265;53.200;6.080;2023-04-29T00:13:21;101430.78;;;8.64;100.00
76434;BME280;65265;53.200;6.080;2023-04-29T00:18:14;101433.66;;;8.70;100.00
76434;BME280;65265;53.200;6.080;2023-04-29T00:23:10;101431.59;;;8.63;100.00
76434;BME280;65265;53.200;6.080;2023-04-29T00:28:03;101444.34;;;8.63;100.00
76434;BME280;65265;53.200;6.080;2023-04-29T00:32:57;101438.09;;;8.58;100.00
76434;BME280;65265;53.200;6.080;2023-04-29T00:37:55;101442.59;;;8.47;100.00
76434;BME280;65265;53.200;6.080;2023-04-29T00:42:55;101458.75;;;8.48;100.00
76434;BME280;65265;53.200;6.080;2023-04-29T00:47:52;101475.25;;;8.54;100.00
76434;BME280;65265;53.200;6.080;2023-04-29T00:52:45;101472.72;;;8.54;100.00
76434;BME280;65265;53.200;6.080;2023-04-29T00:57:46;101464.47;;;8.44;100.00
76434;BME280;65265;53.200;6.080;2023-04-29T01:02:42;101474.81;;;8.47;100.00
76434;BME280;65265;53.200;6.080;2023-04-29T01:07:41;101461.38;;;8.35;100.00
76434;BME280;65265;53.200;6.080;2023-04-29T01:13:08;101488.88;;;8.40;100.00
76434;BME280;65265;53.200;6.080;2023-04-29T01:18:17;101497.06;;;8.49;100.00
76434;BME280;65265;53.200;6.080;2023-04-29T01:23:19;101505.63;;;8.50;100.00
76434;BME280;65265;53.200;6.080;2023-04-29T01:39:33;101527.06;;;8.39;100.00
76434;BME280;65265;53.200;6.080;2023-04-29T01:44:33;101532.72;;;8.35;100.00
76434;BME280;65265;53.200;6.080;2023-04-29T01:54:44;101541.97;;;8.33;100.00
76434;BME280;65265;53.200;6.080;2023-04-29T01:59:58;101553.75;;;8.31;100.00
76434;BME280;65265;53.200;6.080;2023-04-29T02:05:12;101567.28;;;8.30;100.00
76434;BME280;65265;53.200;6.080;2023-04-29T02:10:16;101565.22;;;8.24;100.00
76434;BME280;65265;53.200;6.080;2023-04-29T02:15:13;101578.94;;;8.26;100.00
76434;BME280;65265;53.200;6.080;2023-04-29T02:20:07;101585.97;;;8.30;100.00
76434;BME280;65265;53.200;6.080;2023-04-29T02:25:01;101598.72;;;8.30;100.00
76434;BME280;65265;53.200;6.080;2023-04-29T02:29:56;101602.94;;;8.30;100.00
76434;BME280;65265;53.200;6.080;2023-04-29T02:34:50;101602.94;;;8.30;100.00
76434;BME280;65265;53.200;6.080;2023-04-29T02:45:20;101614.91;;;8.31;100.00
76434;BME280;65265;53.200;6.080;2023-04-29T02:50:19;101625.78;;;8.28;100.00
76434;BME280;65265;53.200;6.080;2023-04-29T02:55:14;101634.09;;;8.26;100.00
76434;BME280;65265;53.200;6.080;2023-04-29T03:00:09;101634.88;;;8.25;100.00
76434;BME280;65265;53.200;6.080;2023-04-29T03:05:33;101644.22;;;8.24;100.00
76434;BME280;65265;53.200;6.080;2023-04-29T03:10:28;101643.31;;;8.24;100.00
76434;BME280;65265;53.200;6.080;2023-04-29T03:15:26;101635.88;;;8.14;100.00
76434;BME280;65265;53.200;6.080;2023-04-29T03:20:21;101646.56;;;8.21;100.00
76434;BME280;65265;53.200;6.080;2023-04-29T03:25:20;101639.22;;;8.13;100.00
76434;BME280;65265;53.200;6.080;2023-04-29T03:30:14;101656.97;;;8.24;100.00
76434;BME280;65265;53.200;6.080;2023-04-29T03:35:07;101663.72;;;8.24;100.00
76434;BME280;65265;53.200;6.080;2023-04-29T03:40:03;101665.28;;;8.22;100.00
76434;BME280;65265;53.200;6.080;2023-04-29T03:45:19;101668.63;;;8.21;100.00
76434;BME280;65265;53.200;6.080;2023-04-29T03:50:12;101666.09;;;8.21;100.00
76434;BME280;65265;53.200;6.080;2023-04-29T03:55:09;101680.75;;;8.25;100.00
76434;BME280;65265;53.200;6.080;2023-04-29T04:00:09;101676.06;;;8.18;100.00
76434;BME280;65265;53.200;6.080;2023-04-29T04:05:06;101680.94;;;8.15;100.00
76434;BME280;65265;53.200;6.080;2023-04-29T04:09:59;101700.97;;;8.22;100.00
76434;BME280;65265;53.200;6.080;2023-04-29T04:15:15;101709.28;;;8.19;100.00
76434;BME280;65265;53.200;6.080;2023-04-29T04:20:18;101692.34;;;8.07;100.00
76434;BME280;65265;53.200;6.080;2023-04-29T04:25:36;101712.78;;;8.08;100.00
76434;BME280;65265;53.200;6.080;2023-04-29T04:30:34;101733.75;;;8.17;100.00
76434;BME280;65265;53.200;6.080;2023-04-29T04:35:31;101741.09;;;8.13;100.00
76434;BME280;65265;53.200;6.080;2023-04-29T04:40:27;101742.88;;;8.14;100.00
76434;BME280;65265;53.200;6.080;2023-04-29T04:45:24;101746.38;;;8.16;100.00
76434;BME280;65265;53.200;6.080;2023-04-29T04:50:17;101734.63;;;8.05;100.00
76434;BME280;65265;53.200;6.080;2023-04-29T04:55:15;101766.22;;;8.20;100.00
76434;BME280;65265;53.200;6.080;2023-04-29T05:00:12;101760.13;;;8.18;100.00
76434;BME280;65265;53.200;6.080;2023-04-29T05:05:08;101774.53;;;8.17;100.00
76434;BME280;65265;53.200;6.080;2023-04-29T05:10:12;101780.13;;;8.25;100.00
76434;BME280;65265;53.200;6.080;2023-04-29T05:15:11;101782.50;;;8.22;99.54
76434;BME280;65265;53.200;6.080;2023-04-29T05:20:25;101775.63;;;8.21;99.10
76434;BME280;65265;53.200;6.080;2023-04-29T05:25:17;101766.41;;;7.97;98.97
76434;BME280;65265;53.200;6.080;2023-04-29T05:35:31;101777.38;;;7.96;98.82
76434;BME280;65265;53.200;6.080;2023-04-29T05:45:48;101798.31;;;8.05;99.07
76434;BME280;65265;53.200;6.080;2023-04-29T05:50:48;101792.13;;;7.88;98.78
76434;BME280;65265;53.200;6.080;2023-04-29T05:55:47;101817.03;;;7.92;98.81
76434;BME280;65265;53.200;6.080;2023-04-29T06:00:41;101823.41;;;7.99;99.15
76434;BME280;65265;53.200;6.080;2023-04-29T06:05:44;101831.16;;;8.00;99.31
76434;BME280;65265;53.200;6.080;2023-04-29T06:11:16;101837.53;;;8.07;99.02
76434;BME280;65265;53.200;6.080;2023-04-29T06:16:10;101838.50;;;8.09;98.76
76434;BME280;65265;53.200;6.080;2023-04-29T06:21:08;101831.06;;;8.12;98.65
76434;BME280;65265;53.200;6.080;2023-04-29T06:26:05;101857.78;;;8.30;98.12
76434;BME280;65265;53.200;6.080;2023-04-29T06:31:00;101851.22;;;8.33;98.37
76434;BME280;65265;53.200;6.080;2023-04-29T06:35:54;101868.75;;;8.42;97.66
76434;BME280;65265;53.200;6.080;2023-04-29T06:40:46;101872.69;;;8.50;98.02
76434;BME280;65265;53.200;6.080;2023-04-29T06:45:47;101874.72;;;8.55;97.09
76434;BME280;65265;53.200;6.080;2023-04-29T06:51:15;101878.56;;;8.62;95.62
76434;BME280;65265;53.200;6.080;2023-04-29T06:56:07;101869.59;;;8.55;93.86
76434;BME280;65265;53.200;6.080;2023-04-29T07:01:02;101901.56;;;8.76;94.77
76434;BME280;65265;53.200;6.080;2023-04-29T07:05:56;101902.09;;;8.84;91.73
76434;BME280;65265;53.200;6.080;2023-04-29T07:11:04;101919.50;;;9.17;89.02
76434;BME280;65265;53.200;6.080;2023-04-29T07:15:56;101920.81;;;9.25;89.81
76434;BME280;65265;53.200;6.080;2023-04-29T07:20:51;101917.78;;;9.30;90.61
76434;BME280;65265;53.200;6.080;2023-04-29T07:25:42;101928.84;;;9.43;89.55
76434;BME280;65265;53.200;6.080;2023-04-29T07:30:34;101944.91;;;9.55;88.20
76434;BME280;65265;53.200;6.080;2023-04-29T07:35:25;101934.97;;;9.60;88.92
76434;BME280;65265;53.200;6.080;2023-04-29T07:40:19;101941.31;;;9.66;88.15
76434;BME280;65265;53.200;6.080;2023-04-29T07:45:11;101965.94;;;9.93;87.50
76434;BME280;65265;53.200;6.080;2023-04-29T07:50:05;101962.00;;;9.98;83.62
76434;BME280;65265;53.200;6.080;2023-04-29T07:54:56;101965.50;;;10.13;80.27
76434;BME280;65265;53.200;6.080;2023-04-29T07:59:52;101977.41;;;10.27;79.86
76434;BME280;65265;53.200;6.080;2023-04-29T08:04:43;101972.28;;;10.27;77.69
76434;BME280;65265;53.200;6.080;2023-04-29T08:09:35;101974.81;;;10.40;78.70
76434;BME280;65265;53.200;6.080;2023-04-29T08:14:27;101977.78;;;10.48;77.14
76434;BME280;65265;53.200;6.080;2023-04-29T08:19:20;101989.00;;;10.64;74.85
76434;BME280;65265;53.200;6.080;2023-04-29T08:24:11;101993.75;;;10.73;80.01
76434;BME280;65265;53.200;6.080;2023-04-29T08:29:03;101999.81;;;10.89;76.07
76434;BME280;65265;53.200;6.080;2023-04-29T08:33:55;102001.94;;;10.96;73.74
76434;BME280;65265;53.200;6.080;2023-04-29T08:38:49;101996.88;;;11.12;78.06
76434;BME280;65265;53.200;6.080;2023-04-29T08:43:41;102008.53;;;11.38;76.31
76434;BME280;65265;53.200;6.080;2023-04-29T08:48:33;102022.03;;;11.50;76.94
76434;BME280;65265;53.200;6.080;2023-04-29T08:53:27;102021.16;;;11.80;76.31
76434;BME280;65265;53.200;6.080;2023-04-29T08:58:21;102036.84;;;12.17;75.51
76434;BME280;65265;53.200;6.080;2023-04-29T09:03:18;102043.22;;;12.41;67.90
76434;BME280;65265;53.200;6.080;2023-04-29T09:08:13;102047.78;;;12.63;69.90
76434;BME280;65265;53.200;6.080;2023-04-29T09:13:07;102048.19;;;12.88;71.22
76434;BME280;65265;53.200;6.080;2023-04-29T09:18:00;102047.06;;;13.34;69.89
76434;BME280;65265;53.200;6.080;2023-04-29T09:22:52;102043.81;;;14.11;71.46
76434;BME280;65265;53.200;6.080;2023-04-29T09:27:44;102042.19;;;14.13;64.73
76434;BME280;65265;53.200;6.080;2023-04-29T09:32:35;102049.25;;;14.75;64.96
76434;BME280;65265;53.200;6.080;2023-04-29T09:37:28;102053.41;;;15.53;63.39
76434;BME280;65265;53.200;6.080;2023-04-29T09:42:22;102048.75;;;16.11;59.00
76434;BME280;65265;53.200;6.080;2023-04-29T09:47:13;102058.16;;;16.10;55.91
76434;BME280;65265;53.200;6.080;2023-04-29T09:52:09;102069.97;;;15.17;55.87
76434;BME280;65265;53.200;6.080;2023-04-29T09:57:14;102060.25;;;14.91;58.51
76434;BME280;65265;53.200;6.080;2023-04-29T10:02:12;102063.41;;;15.05;59.95
76434;BME280;65265;53.200;6.080;2023-04-29T10:07:07;102047.78;;;15.41;51.72
76434;BME280;65265;53.200;6.080;2023-04-29T10:11:59;102039.97;;;15.40;53.99
76434;BME280;65265;53.200;6.080;2023-04-29T10:16:58;102068.63;;;15.47;54.83
76434;BME280;65265;53.200;6.080;2023-04-29T10:21:54;102068.09;;;16.00;56.06
76434;BME280;65265;53.200;6.080;2023-04-29T10:26:50;102072.97;;;16.38;52.01
76434;BME280;65265;53.200;6.080;2023-04-29T10:31:42;102074.41;;;15.42;50.91
76434;BME280;65265;53.200;6.080;2023-04-29T10:36:39;102083.88;;;15.63;50.69
76434;BME280;65265;53.200;6.080;2023-04-29T10:41:35;102092.19;;;16.69;54.55
76434;BME280;65265;53.200;6.080;2023-04-29T10:46:28;102089.16;;;17.57;50.19
76434;BME280;65265;53.200;6.080;2023-04-29T10:51:34;102089.56;;;16.68;51.65
76434;BME280;65265;53.200;6.080;2023-04-29T10:56:37;102090.34;;;17.40;52.95
76434;BME280;65265;53.200;6.080;2023-04-29T11:01:47;102085.59;;;17.28;50.93
76434;BME280;65265;53.200;6.080;2023-04-29T11:06:51;102085.88;;;17.36;53.45
76434;BME280;65265;53.200;6.080;2023-04-29T11:11:56;102088.00;;;17.49;50.29
76434;BME280;65265;53.200;6.080;2023-04-29T11:16:51;102099.81;;;18.53;49.93
76434;BME280;65265;53.200;6.080;2023-04-29T11:21:44;102096.91;;;17.57;51.48
76434;BME280;65265;53.200;6.080;2023-04-29T11:26:40;102104.72;;;17.58;49.64
76434;BME280;65265;53.200;6.080;2023-04-29T11:31:33;102104.88;;;17.91;49.59
76434;BME280;65265;53.200;6.080;2023-04-29T11:36:30;102097.16;;;17.38;48.12
76434;BME280;65265;53.200;6.080;2023-04-29T11:41:22;102103.31;;;16.21;51.87
76434;BME280;65265;53.200;6.080;2023-04-29T11:46:18;102116.66;;;17.03;52.36
76434;BME280;65265;53.200;6.080;2023-04-29T11:51:12;102108.94;;;16.80;51.14
76434;BME280;65265;53.200;6.080;2023-04-29T11:56:04;102106.97;;;17.48;50.52
76434;BME280;65265;53.200;6.080;2023-04-29T12:00:56;102111.72;;;17.61;51.96
76434;BME280;65265;53.200;6.080;2023-04-29T12:05:50;102099.59;;;18.76;45.13
76434;BME280;65265;53.200;6.080;2023-04-29T12:10:44;102096.25;;;19.83;44.58
76434;BME280;65265;53.200;6.080;2023-04-29T12:15:37;102100.22;;;19.69;44.07
76434;BME280;65265;53.200;6.080;2023-04-29T12:20:30;102084.03;;;18.76;41.07
76434;BME280;65265;53.200;6.080;2023-04-29T12:25:24;102101.31;;;18.45;45.32
76434;BME280;65265;53.200;6.080;2023-04-29T12:30:25;102100.59;;;18.81;41.67
76434;BME280;65265;53.200;6.080;2023-04-29T12:35:18;102118.50;;;19.37;42.92
76434;BME280;65265;53.200;6.080;2023-04-29T12:40:12;102117.03;;;20.22;41.90
76434;BME280;65265;53.200;6.080;2023-04-29T12:45:06;102113.13;;;20.43;43.77
76434;BME280;65265;53.200;6.080;2023-04-29T12:49:59;102102.06;;;20.10;43.52
76434;BME280;65265;53.200;6.080;2023-04-29T12:54:51;102106.63;;;20.63;38.07
76434;BME280;65265;53.200;6.080;2023-04-29T12:59:50;102109.06;;;21.52;41.22
76434;BME280;65265;53.200;6.080;2023-04-29T13:04:41;102086.78;;;21.68;41.32
76434;BME280;65265;53.200;6.080;2023-04-29T13:09:34;102120.16;;;21.39;39.26
76434;BME280;65265;53.200;6.080;2023-04-29T13:14:27;102134.25;;;20.17;43.50
76434;BME280;65265;53.200;6.080;2023-04-29T13:19:20;102140.78;;;18.66;47.27
76434;BME280;65265;53.200;6.080;2023-04-29T13:24:12;102139.88;;;18.65;46.14
76434;BME280;65265;53.200;6.080;2023-04-29T13:29:06;102155.38;;;18.93;46.44
76434;BME280;65265;53.200;6.080;2023-04-29T13:33:57;102160.31;;;19.17;45.25
76434;BME280;65265;53.200;6.080;2023-04-29T13:38:50;102160.00;;;19.37;45.40
76434;BME280;65265;53.200;6.080;2023-04-29T13:43:42;102155.53;;;20.41;44.82
76434;BME280;65265;53.200;6.080;2023-04-29T13:48:35;102152.59;;;21.10;42.27
76434;BME280;65265;53.200;6.080;2023-04-29T13:53:27;102154.81;;;21.37;42.05
76434;BME280;65265;53.200;6.080;2023-04-29T13:58:18;102168.09;;;21.53;40.68
76434;BME280;65265;53.200;6.080;2023-04-29T14:03:10;102169.06;;;19.89;43.73
76434;BME280;65265;53.200;6.080;2023-04-29T14:08:03;102180.31;;;18.03;49.16
76434;BME280;65265;53.200;6.080;2023-04-29T14:12:55;102180.56;;;18.68;47.77
76434;BME280;65265;53.200;6.080;2023-04-29T14:17:47;102181.88;;;17.98;46.61
76434;BME280;65265;53.200;6.080;2023-04-29T14:22:40;102191.84;;;18.70;47.69
76434;BME280;65265;53.200;6.080;2023-04-29T14:27:33;102191.72;;;17.81;50.53
76434;BME280;65265;53.200;6.080;2023-04-29T14:32:26;102199.19;;;17.72;48.70
76434;BME280;65265;53.200;6.080;2023-04-29T14:37:17;102203.19;;;16.44;54.50
76434;BME280;65265;53.200;6.080;2023-04-29T14:42:09;102208.13;;;17.55;51.39
76434;BME280;65265;53.200;6.080;2023-04-29T14:47:03;102218.38;;;16.82;54.55
76434;BME280;65265;53.200;6.080;2023-04-29T14:51:55;102223.34;;;16.76;54.05
76434;BME280;65265;53.200;6.080;2023-04-29T14:56:46;102222.78;;;16.17;53.41
76434;BME280;65265;53.200;6.080;2023-04-29T15:01:38;102215.88;;;16.18;56.80
76434;BME280;65265;53.200;6.080;2023-04-29T15:06:44;102226.28;;;16.19;57.73
76434;BME280;65265;53.200;6.080;2023-04-29T15:11:36;102217.84;;;16.67;56.58
76434;BME280;65265;53.200;6.080;2023-04-29T15:16:29;102218.56;;;17.58;52.69
76434;BME280;65265;53.200;6.080;2023-04-29T15:21:22;102222.41;;;17.97;50.83
76434;BME280;65265;53.200;6.080;2023-04-29T15:26:16;102227.75;;;18.28;51.52
76434;BME280;65265;53.200;6.080;2023-04-29T15:31:10;102226.38;;;18.13;50.48
76434;BME280;65265;53.200;6.080;2023-04-29T15:36:01;102230.72;;;17.61;52.24
76434;BME280;65265;53.200;6.080;2023-04-29T15:40:53;102236.00;;;16.47;57.00
76434;BME280;65265;53.200;6.080;2023-04-29T15:45:51;102231.97;;;16.11;59.41
76434;BME280;65265;53.200;6.080;2023-04-29T15:50:42;102242.22;;;16.09;59.59
76434;BME280;65265;53.200;6.080;2023-04-29T15:55:34;102258.16;;;15.58;59.77
76434;BME280;65265;53.200;6.080;2023-04-29T16:00:25;102249.59;;;14.63;60.78
76434;BME280;65265;53.200;6.080;2023-04-29T16:05:19;102253.44;;;14.53;65.24
76434;BME280;65265;53.200;6.080;2023-04-29T16:10:11;102258.38;;;14.85;63.39
76434;BME280;65265;53.200;6.080;2023-04-29T16:15:04;102264.44;;;14.68;62.92
76434;BME280;65265;53.200;6.080;2023-04-29T16:19:57;102268.31;;;14.97;62.71
76434;BME280;65265;53.200;6.080;2023-04-29T16:24:57;102273.78;;;14.66;62.75
76434;BME280;65265;53.200;6.080;2023-04-29T16:29:51;102258.84;;;14.59;63.30
76434;BME280;65265;53.200;6.080;2023-04-29T16:34:43;102272.09;;;14.67;62.87
76434;BME280;65265;53.200;6.080;2023-04-29T16:39:35;102269.91;;;14.05;66.08
76434;BME280;65265;53.200;6.080;2023-04-29T16:44:29;102273.16;;;14.01;66.19
76434;BME280;65265;53.200;6.080;2023-04-29T16:49:23;102278.47;;;13.37;67.33
76434;BME280;65265;53.200;6.080;2023-04-29T16:54:16;102281.97;;;13.55;67.37
76434;BME280;65265;53.200;6.080;2023-04-29T16:59:11;102273.59;;;13.75;68.47
76434;BME280;65265;53.200;6.080;2023-04-29T17:04:09;102267.72;;;13.95;67.85
76434;BME280;65265;53.200;6.080;2023-04-29T17:09:03;102271.66;;;13.88;67.49
76434;BME280;65265;53.200;6.080;2023-04-29T17:13:54;102272.78;;;13.60;68.77
76434;BME280;65265;53.200;6.080;2023-04-29T17:18:48;102272.50;;;13.54;67.77
76434;BME280;65265;53.200;6.080;2023-04-29T17:23:47;102275.50;;;13.45;67.82
76434;BME280;65265;53.200;6.080;2023-04-29T17:28:39;102282.31;;;13.45;67.73
76434;BME280;65265;53.200;6.080;2023-04-29T17:33:35;102247.16;;;13.44;67.92
76434;BME280;65265;53.200;6.080;2023-04-29T17:38:30;102283.94;;;13.43;66.44
76434;BME280;65265;53.200;6.080;2023-04-29T17:43:24;102283.38;;;13.32;67.19
76434;BME280;65265;53.200;6.080;2023-04-29T17:48:24;102277.88;;;13.09;68.94
76434;BME280;65265;53.200;6.080;2023-04-29T17:53:20;102289.25;;;12.98;68.51
76434;BME280;65265;53.200;6.080;2023-04-29T17:58:13;102288.59;;;12.86;69.04
76434;BME280;65265;53.200;6.080;2023-04-29T18:03:09;102278.94;;;12.66;69.41
76434;BME280;65265;53.200;6.080;2023-04-29T18:08:05;102283.06;;;12.48;70.49
76434;BME280;65265;53.200;6.080;2023-04-29T18:12:58;102295.06;;;12.33;72.99
76434;BME280;65265;53.200;6.080;2023-04-29T18:18:01;102312.72;;;11.98;74.95
76434;BME280;65265;53.200;6.080;2023-04-29T18:22:54;102316.09;;;11.55;76.67
76434;BME280;65265;53.200;6.080;2023-04-29T18:27:46;102311.88;;;11.56;76.54
76434;BME280;65265;53.200;6.080;2023-04-29T18:32:42;102315.94;;;11.52;75.84
76434;BME280;65265;53.200;6.080;2023-04-29T18:37:35;102302.81;;;11.33;75.97
76434;BME280;65265;53.200;6.080;2023-04-29T18:42:36;102313.63;;;11.42;75.49
76434;BME280;65265;53.200;6.080;2023-04-29T18:47:31;102308.22;;;11.38;76.47
76434;BME280;65265;53.200;6.080;2023-04-29T18:52:24;102301.63;;;11.14;77.53
76434;BME280;65265;53.200;6.080;2023-04-29T18:57:15;102325.38;;;11.11;78.34
76434;BME280;65265;53.200;6.080;2023-04-29T19:02:09;102340.22;;;10.89;79.04
76434;BME280;65265;53.200;6.080;2023-04-29T19:07:23;102345.72;;;10.95;78.38
76434;BME280;65265;53.200;6.080;2023-04-29T19:17:24;102363.78;;;10.71;79.98
76434;BME280;65265;53.200;6.080;2023-04-29T19:22:22;102357.06;;;10.73;79.63
76434;BME280;65265;53.200;6.080;2023-04-29T19:27:15;102348.31;;;10.69;80.10
76434;BME280;65265;53.200;6.080;2023-04-29T19:32:09;102356.81;;;10.42;81.24
76434;BME280;65265;53.200;6.080;2023-04-29T19:37:04;102352.00;;;10.34;81.24
76434;BME280;65265;53.200;6.080;2023-04-29T19:42:07;102350.81;;;10.29;81.54
76434;BME280;65265;53.200;6.080;2023-04-29T19:46:59;102334.00;;;10.19;81.76
76434;BME280;65265;53.200;6.080;2023-04-29T19:51:51;102346.00;;;10.20;81.73
76434;BME280;65265;53.200;6.080;2023-04-29T19:56:47;102360.13;;;10.15;82.35
76434;BME280;65265;53.200;6.080;2023-04-29T20:01:41;102349.81;;;10.14;82.59
76434;BME280;65265;53.200;6.080;2023-04-29T20:06:39;102343.03;;;10.14;82.29
76434;BME280;65265;53.200;6.080;2023-04-29T20:11:32;102343.44;;;10.20;81.39
76434;BME280;65265;53.200;6.080;2023-04-29T20:16:30;102365.84;;;10.37;81.14
76434;BME280;65265;53.200;6.080;2023-04-29T20:21:24;102376.84;;;10.36;80.71
76434;BME280;65265;53.200;6.080;2023-04-29T20:26:16;102385.50;;;10.38;80.88
76434;BME280;65265;53.200;6.080;2023-04-29T20:31:12;102380.13;;;10.34;81.22
76434;BME280;65265;53.200;6.080;2023-04-29T20:36:08;102378.25;;;10.31;81.85
76434;BME280;65265;53.200;6.080;2023-04-29T20:41:00;102389.44;;;10.20;82.64
76434;BME280;65265;53.200;6.080;2023-04-29T20:45:52;102397.00;;;9.81;83.96
76434;BME280;65265;53.200;6.080;2023-04-29T20:50:46;102359.34;;;9.42;84.13
76434;BME280;65265;53.200;6.080;2023-04-29T20:55:40;102386.53;;;9.41;83.60
76434;BME280;65265;53.200;6.080;2023-04-29T21:00:32;102384.38;;;9.23;83.64
76434;BME280;65265;53.200;6.080;2023-04-29T21:05:24;102398.91;;;9.24;83.58
76434;BME280;65265;53.200;6.080;2023-04-29T21:10:16;102416.59;;;9.21;83.92
76434;BME280;65265;53.200;6.080;2023-04-29T21:15:10;102402.84;;;9.19;82.96
76434;BME280;65265;53.200;6.080;2023-04-29T21:20:02;102407.94;;;9.19;81.96
76434;BME280;65265;53.200;6.080;2023-04-29T21:24:56;102405.38;;;9.19;82.84
76434;BME280;65265;53.200;6.080;2023-04-29T21:29:49;102412.59;;;9.13;80.86
76434;BME280;65265;53.200;6.080;2023-04-29T21:39:55;102420.97;;;8.99;81.62
76434;BME280;65265;53.200;6.080;2023-04-29T21:44:49;102415.31;;;8.91;81.47
76434;BME280;65265;53.200;6.080;2023-04-29T21:49:42;102421.31;;;8.80;81.31
76434;BME280;65265;53.200;6.080;2023-04-29T21:54:34;102418.91;;;8.70;81.15
76434;BME280;65265;53.200;6.080;2023-04-29T21:59:27;102415.13;;;8.54;81.58
76434;BME280;65265;53.200;6.080;2023-04-29T22:04:23;102417.78;;;8.44;82.13
76434;BME280;65265;53.200;6.080;2023-04-29T22:09:15;102419.03;;;8.16;83.03
76434;BME280;65265;53.200;6.080;2023-04-29T22:14:06;102419.91;;;7.93;84.04
76434;BME280;65265;53.200;6.080;2023-04-29T22:18:59;102426.28;;;7.77;84.78
76434;BME280;65265;53.200;6.080;2023-04-29T22:23:52;102424.88;;;7.59;84.62
76434;BME280;65265;53.200;6.080;2023-04-29T22:28:44;102431.06;;;7.51;85.28
76434;BME280;65265;53.200;6.080;2023-04-29T22:33:36;102444.84;;;7.43;85.95
76434;BME280;65265;53.200;6.080;2023-04-29T22:38:31;102442.56;;;7.36;85.63
76434;BME280;65265;53.200;6.080;2023-04-29T22:43:24;102451.75;;;7.34;85.43
76434;BME280;65265;53.200;6.080;2023-04-29T22:48:18;102451.94;;;7.25;85.80
76434;BME280;65265;53.200;6.080;2023-04-29T22:53:10;102453.41;;;7.12;85.57
76434;BME280;65265;53.200;6.080;2023-04-29T22:58:05;102411.59;;;6.77;86.71
76434;BME280;65265;53.200;6.080;2023-04-29T23:02:57;102457.03;;;6.94;87.35
76434;BME280;65265;53.200;6.080;2023-04-29T23:07:51;102454.53;;;6.84;88.08
76434;BME280;65265;53.200;6.080;2023-04-29T23:12:43;102459.88;;;6.77;88.87
76434;BME280;65265;53.200;6.080;2023-04-29T23:17:37;102458.38;;;6.69;89.02
76434;BME280;65265;53.200;6.080;2023-04-29T23:22:30;102455.22;;;6.62;89.22
76434;BME280;65265;53.200;6.080;2023-04-29T23:27:23;102445.47;;;6.56;90.62
76434;BME280;65265;53.200;6.080;2023-04-29T23:32:14;102453.34;;;6.49;90.28
76434;BME280;65265;53.200;6.080;2023-04-29T23:37:07;102463.16;;;6.45;90.45
76434;BME280;65265;53.200;6.080;2023-04-29T23:41:59;102456.94;;;6.31;90.89
76434;BME280;65265;53.200;6.080;2023-04-29T23:46:52;102452.63;;;6.30;91.21
76434;BME280;65265;53.200;6.080;2023-04-29T23:51:45;102440.44;;;6.16;91.05
76434;BME280;65265;53.200;6.080;2023-04-29T23:56:39;102456.19;;;6.22;90.78
